createdAt,value
2022-09-06T00:00:07.838Z,3.20
2022-09-06T00:02:09.501Z,3.07
2022-09-06T00:04:15.217Z,3.30
2022-09-06T00:06:20.176Z,3.40
2022-09-06T00:08:21.875Z,3.70
2022-09-06T00:10:23.584Z,2.80
2022-09-06T00:12:25.806Z,3.10
2022-09-06T00:14:27.535Z,3.10
2022-09-06T00:16:30.585Z,2.73
2022-09-06T00:18:32.444Z,3.30
2022-09-06T00:20:34.897Z,3.10
2022-09-06T00:22:37.775Z,3.17
2022-09-06T00:24:39.545Z,4.27
2022-09-06T00:26:41.240Z,2.77
2022-09-06T00:28:43.299Z,3.00
2022-09-06T00:30:45.220Z,3.00
2022-09-06T00:32:46.981Z,2.80
2022-09-06T00:34:48.751Z,3.40
2022-09-06T00:36:50.445Z,3.60
2022-09-06T00:38:52.200Z,3.87
2022-09-06T00:40:53.924Z,3.10
2022-09-06T00:42:57.444Z,3.63
2022-09-06T00:44:59.876Z,3.10
2022-09-06T00:47:01.989Z,3.00
2022-09-06T00:49:08.632Z,3.50
2022-09-06T00:51:13.144Z,2.70
2022-09-06T00:53:15.146Z,2.77
2022-09-06T00:55:17.399Z,3.30
2022-09-06T00:57:19.558Z,3.57
2022-09-06T00:59:21.885Z,3.33
2022-09-06T01:01:23.641Z,3.33
2022-09-06T01:03:26.277Z,3.63
2022-09-06T01:06:00.149Z,3.10
2022-09-06T01:08:40.000Z,3.03
2022-09-06T01:10:56.729Z,2.90
2022-09-06T01:13:11.695Z,3.57
2022-09-06T01:15:35.025Z,3.30
2022-09-06T01:17:58.229Z,3.43
2022-09-06T01:20:24.705Z,3.30
2022-09-06T01:23:04.676Z,3.37
2022-09-06T01:25:25.603Z,3.33
2022-09-06T01:27:42.857Z,2.90
2022-09-06T01:29:49.368Z,3.30
2022-09-06T01:32:08.993Z,2.80
2022-09-06T01:34:31.859Z,3.97
2022-09-06T01:37:10.920Z,3.00
2022-09-06T01:39:27.047Z,2.70
2022-09-06T01:41:29.978Z,3.23
2022-09-06T01:43:35.278Z,3.20
2022-09-06T01:45:42.813Z,2.53
2022-09-06T01:47:59.569Z,3.30
2022-09-06T01:50:22.903Z,3.50
2022-09-06T01:52:47.414Z,3.10
2022-09-06T01:55:00.740Z,3.30
2022-09-06T01:57:14.539Z,2.57
2022-09-06T01:59:37.838Z,3.17
2022-09-06T02:01:59.525Z,3.10
2022-09-06T02:04:26.976Z,3.00
2022-09-06T02:06:33.482Z,3.10
2022-09-06T02:09:04.141Z,3.50
2022-09-06T02:11:08.575Z,3.13
2022-09-06T02:13:12.484Z,2.73
2022-09-06T02:15:19.650Z,3.33
2022-09-06T02:17:27.142Z,3.30
2022-09-06T02:19:39.814Z,3.10
2022-09-06T02:21:45.897Z,3.07
2022-09-06T02:23:49.669Z,2.97
2022-09-06T02:25:55.851Z,3.10
2022-09-06T02:27:57.681Z,3.17
2022-09-06T02:29:59.500Z,3.10
2022-09-06T02:32:11.042Z,3.10
2022-09-06T02:34:16.673Z,3.20
2022-09-06T02:36:19.168Z,3.07
2022-09-06T02:38:26.835Z,3.23
2022-09-06T02:40:28.943Z,3.33
2022-09-06T02:42:31.550Z,3.00
2022-09-06T02:44:33.264Z,3.53
2022-09-06T02:46:35.133Z,3.20
2022-09-06T02:48:36.867Z,3.67
2022-09-06T02:50:38.642Z,3.50
2022-09-06T02:52:41.521Z,3.17
2022-09-06T02:54:43.252Z,3.50
2022-09-06T02:56:47.057Z,3.80
2022-09-06T02:58:51.942Z,3.30
2022-09-06T03:00:54.943Z,3.77
2022-09-06T03:02:58.018Z,3.50
2022-09-06T03:04:59.722Z,3.07
2022-09-06T03:07:01.448Z,3.80
2022-09-06T03:09:03.537Z,3.30
2022-09-06T03:11:05.272Z,4.70
2022-09-06T03:13:07.197Z,4.10
2022-09-06T03:15:09.904Z,4.17
2022-09-06T03:17:11.595Z,4.63
2022-09-06T03:19:17.327Z,5.97
2022-09-06T03:21:19.546Z,5.30
2022-09-06T03:23:24.097Z,6.13
2022-09-06T03:25:26.582Z,4.97
2022-09-06T03:27:28.376Z,6.30
2022-09-06T03:29:30.090Z,6.37
2022-09-06T03:31:32.390Z,6.50
2022-09-06T03:33:34.413Z,5.87
2022-09-06T03:35:36.261Z,6.63
2022-09-06T03:37:38.901Z,6.37
2022-09-06T03:39:40.812Z,6.80
2022-09-06T03:41:42.597Z,6.67
2022-09-06T03:43:44.260Z,6.97
2022-09-06T03:45:48.317Z,6.50
2022-09-06T03:47:50.066Z,6.40
2022-09-06T03:49:51.766Z,7.10
2022-09-06T03:51:53.540Z,5.80
2022-09-06T03:53:55.731Z,7.30
2022-09-06T03:55:58.380Z,6.07
2022-09-06T03:58:01.682Z,6.67
2022-09-06T04:00:04.521Z,7.03
2022-09-06T04:02:06.492Z,6.03
2022-09-06T04:04:08.298Z,7.37
2022-09-06T04:06:10.351Z,7.20
2022-09-06T04:08:12.241Z,6.60
2022-09-06T04:10:14.876Z,6.70
2022-09-06T04:12:16.663Z,7.87
2022-09-06T04:14:18.404Z,7.33
2022-09-06T04:16:20.137Z,7.23
2022-09-06T04:18:22.916Z,7.03
2022-09-06T04:20:24.629Z,7.70
2022-09-06T04:22:26.384Z,7.93
2022-09-06T04:24:28.051Z,7.63
2022-09-06T04:26:30.067Z,7.40
2022-09-06T04:28:31.793Z,7.17
2022-09-06T04:30:33.466Z,7.20
2022-09-06T04:32:35.180Z,7.37
2022-09-06T04:34:36.907Z,7.53
2022-09-06T04:36:39.349Z,8.13
2022-09-06T04:38:44.358Z,7.30
2022-09-06T04:40:46.150Z,8.07
2022-09-06T04:42:48.072Z,7.57
2022-09-06T04:44:49.811Z,6.80
2022-09-06T04:47:09.558Z,6.83
2022-09-06T04:49:11.470Z,7.87
2022-09-06T04:51:15.314Z,6.60
2022-09-06T04:53:17.158Z,6.50
2022-09-06T04:55:18.880Z,7.10
2022-09-06T04:57:20.667Z,6.60
2022-09-06T04:59:22.418Z,7.10
2022-09-06T05:01:26.566Z,7.20
2022-09-06T05:03:28.324Z,7.00
2022-09-06T05:05:32.169Z,7.20
2022-09-06T05:07:37.490Z,7.90
2022-09-06T05:09:39.790Z,7.43
2022-09-06T05:11:41.685Z,7.00
2022-09-06T05:13:43.458Z,8.37
2022-09-06T05:15:45.359Z,7.53
2022-09-06T05:17:47.389Z,7.23
2022-09-06T05:19:49.157Z,6.80
2022-09-06T05:21:51.645Z,6.33
2022-09-06T05:23:58.392Z,7.60
2022-09-06T05:26:00.520Z,7.03
2022-09-06T05:28:02.582Z,6.03
2022-09-06T05:30:04.834Z,6.93
2022-09-06T05:32:06.774Z,6.60
2022-09-06T05:34:08.571Z,8.00
2022-09-06T05:36:10.603Z,6.63
2022-09-06T05:38:12.330Z,6.90
2022-09-06T05:40:14.224Z,6.57
2022-09-06T05:42:19.118Z,6.27
2022-09-06T05:44:21.167Z,6.17
2022-09-06T05:46:22.942Z,5.67
2022-09-06T05:48:24.734Z,5.70
2022-09-06T05:50:26.435Z,5.50
2022-09-06T05:52:29.069Z,5.50
2022-09-06T05:54:30.754Z,6.77
2022-09-06T05:56:32.476Z,5.00
2022-09-06T05:58:34.727Z,5.70
2022-09-06T06:00:36.552Z,4.80
2022-09-06T06:02:38.383Z,4.57
2022-09-06T06:04:40.233Z,4.77
2022-09-06T06:06:41.901Z,4.97
2022-09-06T06:08:43.665Z,4.50
2022-09-06T06:10:45.360Z,4.53
2022-09-06T06:12:47.236Z,4.90
2022-09-06T06:14:48.914Z,4.07
2022-09-06T06:16:51.038Z,4.53
2022-09-06T06:18:52.994Z,4.30
2022-09-06T06:21:11.342Z,4.70
2022-09-06T06:23:15.197Z,4.70
2022-09-06T06:25:17.101Z,4.10
2022-09-06T06:27:18.966Z,4.13
2022-09-06T06:29:20.913Z,4.23
2022-09-06T06:31:23.806Z,4.90
2022-09-06T06:33:25.489Z,4.07
2022-09-06T06:35:27.205Z,4.00
2022-09-06T06:37:28.878Z,3.90
2022-09-06T06:39:30.580Z,4.17
2022-09-06T06:41:32.905Z,3.57
2022-09-06T06:43:38.241Z,3.50
2022-09-06T06:45:40.067Z,4.53
2022-09-06T06:47:41.846Z,3.50
2022-09-06T06:49:43.522Z,4.57
2022-09-06T06:51:45.269Z,4.13
2022-09-06T06:53:48.861Z,3.50
2022-09-06T06:55:50.720Z,4.10
2022-09-06T06:57:52.443Z,3.60
2022-09-06T06:59:54.106Z,3.50
2022-09-06T07:01:55.947Z,3.77
2022-09-06T07:03:58.319Z,4.37
2022-09-06T07:06:15.390Z,4.50
2022-09-06T07:08:17.162Z,4.20
2022-09-06T07:10:34.483Z,3.60
2022-09-06T07:12:36.346Z,4.00
2022-09-06T07:14:38.074Z,3.50
2022-09-06T07:16:39.991Z,4.20
2022-09-06T07:18:43.346Z,3.60
2022-09-06T07:25:29.110Z,3.50
2022-09-06T07:27:46.542Z,3.20
2022-09-06T07:29:48.865Z,2.90
2022-09-06T07:34:13.377Z,3.57
2022-09-06T07:36:15.159Z,3.40
2022-09-06T07:38:16.818Z,3.27
2022-09-06T07:40:18.517Z,3.87
2022-09-06T07:42:20.534Z,3.20
2022-09-06T07:44:22.239Z,3.47
2022-09-06T07:46:24.207Z,3.53
2022-09-06T07:48:27.763Z,4.43
2022-09-06T07:50:47.996Z,3.57
2022-09-06T07:55:09.309Z,3.80
2022-09-06T07:57:12.127Z,3.63
2022-09-06T07:59:14.065Z,3.20
2022-09-06T08:01:29.571Z,2.93
2022-09-06T08:03:31.278Z,3.60
2022-09-06T08:10:18.879Z,3.25
2022-09-06T08:12:22.406Z,3.30
2022-09-06T08:14:24.230Z,3.40
2022-09-06T08:16:28.287Z,3.45
2022-09-06T08:18:30.129Z,3.25
2022-09-06T08:20:32.028Z,3.60
2022-09-06T08:22:34.054Z,3.45
2022-09-06T08:24:35.832Z,3.00
2022-09-06T08:26:44.901Z,3.67
2022-09-06T08:28:47.273Z,3.15
2022-09-06T08:30:48.976Z,3.22
2022-09-06T08:32:52.436Z,3.42
2022-09-06T08:34:54.120Z,3.25
2022-09-06T08:36:55.841Z,3.63
2022-09-06T08:38:59.259Z,3.25
2022-09-06T08:41:15.197Z,3.33
2022-09-06T08:43:20.376Z,3.70
2022-09-06T08:45:23.264Z,3.13
2022-09-06T08:47:25.116Z,3.65
2022-09-06T08:49:31.413Z,2.88
2022-09-06T08:52:17.148Z,3.20
2022-09-06T08:54:31.258Z,3.35
2022-09-06T08:56:42.422Z,3.45
2022-09-06T08:59:07.233Z,3.78
2022-09-06T09:01:18.987Z,3.90
2022-09-06T09:03:32.208Z,3.75
2022-09-06T09:05:36.208Z,3.60
2022-09-06T09:08:04.062Z,3.53
2022-09-06T09:10:24.765Z,3.60
2022-09-06T09:12:30.674Z,3.42
2022-09-06T09:14:37.959Z,3.17
2022-09-06T09:16:39.758Z,3.30
2022-09-06T09:18:46.547Z,3.53
2022-09-06T09:20:48.302Z,3.38
2022-09-06T09:22:50.049Z,3.50
2022-09-06T09:24:52.975Z,3.88
2022-09-06T09:27:03.253Z,3.70
2022-09-06T09:29:11.311Z,3.70
2022-09-06T09:31:14.209Z,3.70
2022-09-06T09:33:33.080Z,3.97
2022-09-06T09:35:40.677Z,3.85
2022-09-06T09:39:49.524Z,3.28
2022-09-06T09:41:51.450Z,3.28
2022-09-06T09:44:02.257Z,3.42
2022-09-06T09:46:11.574Z,3.47
2022-09-06T09:48:24.834Z,3.65
2022-09-06T09:50:31.265Z,3.25
2022-09-06T09:52:32.994Z,3.20
2022-09-06T09:54:40.775Z,3.53
2022-09-06T09:56:52.837Z,4.07
2022-09-06T09:58:57.999Z,3.53
2022-09-06T10:01:23.425Z,3.75
2022-09-06T10:03:31.051Z,3.60
2022-09-06T10:05:33.075Z,3.20
2022-09-06T10:07:41.255Z,3.22
2022-09-06T10:09:48.411Z,3.42
2022-09-06T10:11:54.462Z,3.30
2022-09-06T10:14:11.708Z,3.00
2022-09-06T10:16:13.732Z,3.55
2022-09-06T10:18:33.782Z,3.50
2022-09-06T10:20:43.911Z,3.72
2022-09-06T10:23:03.245Z,3.30
2022-09-06T10:25:19.577Z,3.30
2022-09-06T10:27:27.096Z,4.13
2022-09-06T10:29:52.918Z,3.72
2022-09-06T10:32:04.053Z,3.60
2022-09-06T10:34:05.878Z,3.85
2022-09-06T10:36:08.125Z,3.58
2022-09-06T10:38:28.816Z,2.95
2022-09-06T10:40:53.686Z,3.33
2022-09-06T10:43:00.442Z,3.78
2022-09-06T10:45:28.758Z,3.33
2022-09-06T10:47:46.527Z,3.42
2022-09-06T10:49:55.186Z,4.13
2022-09-06T10:52:03.257Z,2.80
2022-09-06T10:54:17.634Z,2.90
2022-09-06T10:56:29.007Z,3.25
2022-09-06T11:02:01.484Z,4.05
2022-09-06T11:04:12.692Z,3.70
2022-09-06T11:06:17.281Z,3.65
2022-09-06T11:10:49.856Z,3.50
2022-09-06T11:13:04.189Z,3.80
2022-09-06T11:15:08.282Z,4.03
2022-09-06T11:17:27.298Z,3.60
2022-09-06T11:19:38.363Z,4.03
2022-09-06T11:22:21.635Z,4.13
2022-09-06T11:24:36.855Z,3.90
2022-09-06T11:27:10.909Z,4.03
2022-09-06T11:29:21.249Z,3.72
2022-09-06T11:34:10.251Z,4.13
2022-09-06T11:36:35.328Z,4.25
2022-09-06T11:38:37.110Z,4.20
2022-09-06T11:41:03.818Z,3.55
2022-09-06T11:43:05.585Z,3.63
2022-09-06T11:45:21.737Z,3.92
2022-09-06T11:47:37.240Z,3.78
2022-09-06T11:49:41.301Z,4.70
2022-09-06T11:51:44.821Z,4.07
2022-09-06T11:53:49.220Z,3.47
2022-09-06T11:55:59.826Z,3.30
2022-09-06T11:58:04.573Z,3.28
2022-09-06T12:00:08.802Z,3.63
2022-09-06T12:02:40.789Z,3.10
2022-09-06T12:05:01.146Z,3.55
2022-09-06T12:07:12.999Z,3.55
2022-09-06T12:09:29.650Z,3.95
2022-09-06T12:11:44.057Z,3.65
2022-09-06T12:13:45.694Z,3.13
2022-09-06T12:15:54.561Z,3.38
2022-09-06T12:17:58.046Z,3.05
2022-09-06T12:20:08.215Z,3.97
2022-09-06T12:22:33.854Z,3.72
2022-09-06T12:24:35.476Z,4.28
2022-09-06T12:27:09.229Z,3.40
2022-09-06T12:29:11.753Z,3.05
2022-09-06T12:31:34.743Z,3.35
2022-09-06T12:33:38.931Z,3.53
2022-09-06T12:38:00.262Z,3.33
2022-09-06T12:40:02.095Z,3.40
2022-09-06T12:42:12.555Z,2.97
2022-09-06T12:44:16.464Z,3.30
2022-09-06T12:46:18.758Z,3.35
2022-09-06T12:48:33.329Z,3.60
2022-09-06T12:50:35.697Z,3.80
2022-09-06T12:52:57.048Z,4.07
2022-09-06T12:54:58.970Z,4.15
2022-09-06T12:57:21.966Z,4.07
2022-09-06T12:59:27.017Z,3.97
2022-09-06T13:01:36.589Z,3.95
2022-09-06T13:03:58.301Z,3.92
2022-09-06T13:06:04.361Z,3.75
2022-09-06T13:08:16.271Z,4.35
2022-09-06T13:10:21.839Z,3.65
2022-09-06T13:12:27.528Z,3.80
2022-09-06T13:14:32.299Z,3.85
2022-09-06T13:16:39.129Z,3.80
2022-09-06T13:18:41.077Z,3.42
2022-09-06T13:20:43.526Z,3.40
2022-09-06T13:22:47.896Z,3.28
2022-09-06T13:24:49.540Z,3.20
2022-09-06T13:26:52.117Z,2.78
2022-09-06T13:28:53.774Z,2.83
2022-09-06T13:31:21.046Z,2.70
2022-09-06T13:33:25.540Z,3.17
2022-09-06T13:35:31.037Z,3.40
2022-09-06T13:37:36.215Z,3.42
2022-09-06T13:39:40.787Z,2.63
2022-09-06T13:41:44.151Z,3.30
2022-09-06T13:43:48.480Z,2.80
2022-09-06T13:46:08.214Z,2.88
2022-09-06T13:48:28.336Z,2.60
2022-09-06T13:50:30.323Z,3.10
2022-09-06T13:52:32.091Z,3.15
2022-09-06T13:54:34.667Z,3.53
2022-09-06T13:56:37.040Z,3.65
2022-09-06T13:58:38.684Z,3.55
2022-09-06T14:00:41.215Z,3.00
2022-09-06T14:02:43.719Z,4.30
2022-09-06T14:04:45.609Z,5.28
2022-09-06T14:06:48.838Z,3.45
2022-09-06T14:09:06.501Z,3.53
2022-09-06T14:11:10.643Z,3.47
2022-09-06T14:13:12.552Z,4.20
2022-09-06T14:15:14.591Z,3.72
2022-09-06T14:17:16.296Z,3.65
2022-09-06T14:19:18.116Z,3.80
2022-09-06T14:21:19.831Z,3.30
2022-09-06T14:23:22.437Z,3.60
2022-09-06T14:25:24.215Z,3.50
2022-09-06T14:27:25.986Z,3.78
2022-09-06T14:29:28.432Z,3.92
2022-09-06T14:31:30.372Z,4.10
2022-09-06T14:33:32.061Z,5.10
2022-09-06T14:35:34.405Z,4.68
2022-09-06T14:37:36.700Z,5.28
2022-09-06T14:39:38.566Z,4.60
2022-09-06T14:41:40.376Z,3.15
2022-09-06T14:43:43.551Z,3.83
2022-09-06T14:45:45.356Z,3.28
2022-09-06T14:47:47.241Z,3.28
2022-09-06T14:49:48.989Z,3.50
2022-09-06T14:51:53.613Z,3.95
2022-09-06T14:54:01.393Z,3.67
2022-09-06T14:56:03.958Z,3.42
2022-09-06T14:58:05.670Z,3.67
2022-09-06T15:00:11.216Z,4.82
2022-09-06T15:02:13.010Z,3.85
2022-09-06T15:04:14.836Z,3.63
2022-09-06T15:06:17.223Z,3.97
2022-09-06T15:08:19.273Z,4.00
2022-09-06T15:10:21.244Z,4.03
2022-09-06T15:12:23.035Z,5.33
2022-09-06T15:14:29.321Z,4.30
2022-09-06T15:16:32.578Z,4.93
2022-09-06T15:18:35.447Z,4.27
2022-09-06T15:20:37.174Z,4.83
2022-09-06T15:22:38.991Z,4.60
2022-09-06T15:24:40.776Z,4.37
2022-09-06T15:26:43.390Z,5.60
2022-09-06T15:28:45.226Z,4.10
2022-09-06T15:30:47.745Z,4.23
2022-09-06T15:32:49.628Z,4.17
2022-09-06T15:34:51.346Z,4.13
2022-09-06T15:36:54.398Z,4.60
2022-09-06T15:38:59.427Z,4.93
2022-09-06T15:41:12.960Z,4.20
2022-09-06T15:43:14.695Z,4.17
2022-09-06T15:45:16.582Z,4.27
2022-09-06T15:47:18.271Z,3.87
2022-09-06T15:49:29.202Z,4.03
2022-09-06T15:51:31.054Z,4.07
2022-09-06T15:53:32.862Z,3.20
2022-09-06T15:55:53.198Z,3.13
2022-09-06T15:57:54.901Z,2.95
2022-09-06T15:59:56.591Z,3.17
2022-09-06T16:01:58.454Z,3.25
2022-09-06T16:04:05.970Z,3.70
2022-09-06T16:08:25.447Z,3.50
2022-09-06T16:10:27.226Z,3.50
2022-09-06T16:12:29.041Z,3.90
2022-09-06T16:14:30.836Z,5.05
2022-09-06T16:16:33.175Z,3.63
2022-09-06T16:18:37.111Z,3.80
2022-09-06T16:20:38.792Z,3.63
2022-09-06T16:22:40.535Z,3.25
2022-09-06T16:24:42.295Z,3.38
2022-09-06T16:26:48.805Z,3.53
2022-09-06T16:28:51.828Z,4.38
2022-09-06T16:30:53.593Z,3.00
2022-09-06T16:32:55.381Z,3.43
2022-09-06T16:34:58.082Z,4.10
2022-09-06T16:37:00.597Z,3.65
2022-09-06T16:39:02.845Z,4.17
2022-09-06T16:41:18.153Z,8.67
2022-09-06T16:43:20.000Z,5.20
2022-09-06T16:45:22.029Z,5.47
2022-09-06T16:47:24.296Z,4.10
2022-09-06T16:49:26.265Z,3.97
2022-09-06T16:51:29.209Z,3.87
2022-09-06T16:53:30.890Z,3.13
2022-09-06T16:55:36.168Z,3.20
2022-09-06T16:57:40.823Z,3.63
2022-09-06T16:59:42.576Z,3.83
2022-09-06T17:01:45.214Z,3.40
2022-09-06T17:03:47.864Z,3.03
2022-09-06T17:05:51.088Z,3.33
2022-09-06T17:07:52.765Z,3.27
2022-09-06T17:09:54.493Z,3.43
2022-09-06T17:11:56.220Z,3.30
2022-09-06T17:13:58.369Z,3.33
2022-09-06T17:16:22.071Z,3.57
2022-09-06T17:18:26.731Z,3.43
2022-09-06T17:20:28.486Z,3.30
2022-09-06T17:22:30.293Z,3.40
2022-09-06T17:24:32.120Z,3.23
2022-09-06T17:26:36.743Z,3.60
2022-09-06T17:28:40.581Z,3.67
2022-09-06T17:30:42.385Z,3.37
2022-09-06T17:32:44.224Z,3.53
2022-09-06T17:34:46.263Z,3.77
2022-09-06T17:36:48.421Z,3.90
2022-09-06T17:38:53.645Z,3.97
2022-09-06T17:40:59.895Z,3.43
2022-09-06T17:43:01.716Z,3.70
2022-09-06T17:45:03.859Z,3.57
2022-09-06T17:47:12.868Z,3.93
2022-09-06T17:49:18.020Z,3.83
2022-09-06T17:51:19.898Z,4.20
2022-09-06T17:53:21.714Z,4.37
2022-09-06T17:55:23.843Z,4.03
2022-09-06T17:57:25.534Z,4.23
2022-09-06T17:59:31.556Z,4.07
2022-09-06T18:01:38.478Z,4.07
2022-09-06T18:03:42.165Z,3.50
2022-09-06T18:05:45.202Z,4.07
2022-09-06T18:07:47.516Z,4.17
2022-09-06T18:09:49.400Z,5.80
2022-09-06T18:11:51.171Z,6.60
2022-09-06T18:13:56.383Z,4.90
2022-09-06T18:15:58.478Z,4.40
2022-09-06T18:18:00.380Z,4.20
2022-09-06T18:20:03.742Z,3.60
2022-09-06T18:22:05.563Z,3.70
2022-09-06T18:24:08.595Z,3.77
2022-09-06T18:26:11.781Z,3.50
2022-09-06T18:28:14.741Z,3.67
2022-09-06T18:30:16.654Z,3.73
2022-09-06T18:32:18.419Z,3.10
2022-09-06T18:34:20.149Z,3.40
2022-09-06T18:36:21.870Z,3.83
2022-09-06T18:38:24.177Z,3.60
2022-09-06T18:40:25.959Z,3.30
2022-09-06T18:42:27.694Z,3.40
2022-09-06T18:44:32.335Z,3.27
2022-09-06T18:46:36.529Z,3.53
2022-09-06T18:48:39.202Z,4.37
2022-09-06T18:50:41.186Z,3.57
2022-09-06T18:52:42.949Z,4.40
2022-09-06T18:54:44.787Z,3.97
2022-09-06T18:56:47.043Z,3.33
2022-09-06T18:58:48.876Z,3.23
2022-09-06T19:00:51.321Z,3.03
2022-09-06T19:02:53.654Z,3.70
2022-09-06T19:04:55.975Z,3.57
2022-09-06T19:06:57.843Z,3.13
2022-09-06T19:09:01.316Z,3.17
2022-09-06T19:11:06.391Z,2.93
2022-09-06T19:13:08.188Z,3.60
2022-09-06T19:15:10.934Z,3.57
2022-09-06T19:17:12.627Z,2.90
2022-09-06T19:19:14.454Z,3.47
2022-09-06T19:21:19.099Z,3.70
2022-09-06T19:23:22.500Z,3.80
2022-09-06T19:25:24.752Z,3.53
2022-09-06T19:27:27.338Z,4.00
2022-09-06T19:29:29.121Z,3.60
2022-09-06T19:31:33.964Z,4.03
2022-09-06T19:33:36.448Z,3.67
2022-09-06T19:35:47.086Z,4.00
2022-09-06T19:37:57.502Z,4.17
2022-09-06T19:39:59.271Z,3.97
2022-09-06T19:42:01.081Z,4.03
2022-09-06T19:44:05.639Z,3.70
2022-09-06T19:46:09.214Z,4.27
2022-09-06T19:48:10.948Z,4.67
2022-09-06T19:50:12.701Z,4.00
2022-09-06T19:52:14.617Z,5.07
2022-09-06T19:54:17.017Z,4.57
2022-09-06T19:56:24.212Z,4.20
2022-09-06T19:58:26.268Z,4.50
2022-09-06T20:00:30.378Z,4.67
2022-09-06T20:02:35.540Z,3.83
2022-09-06T20:04:37.299Z,4.70
2022-09-06T20:06:39.758Z,4.50
2022-09-06T20:08:42.645Z,4.30
2022-09-06T20:11:13.539Z,4.60
2022-09-06T20:13:15.277Z,4.50
2022-09-06T20:15:17.098Z,5.13
2022-09-06T20:17:33.486Z,5.10
2022-09-06T20:19:36.206Z,5.30
2022-09-06T20:21:37.978Z,4.80
2022-09-06T20:23:40.477Z,5.37
2022-09-06T20:25:42.218Z,4.43
2022-09-06T20:27:44.729Z,4.00
2022-09-06T20:29:46.994Z,3.50
2022-09-06T20:31:48.964Z,3.50
2022-09-06T20:33:50.941Z,4.43
2022-09-06T20:36:11.867Z,5.40
2022-09-06T20:38:13.908Z,4.93
2022-09-06T20:40:16.007Z,4.30
2022-09-06T20:42:17.729Z,4.00
2022-09-06T20:44:19.827Z,4.43
2022-09-06T20:46:24.170Z,4.43
2022-09-06T20:48:26.681Z,4.80
2022-09-06T20:50:28.840Z,4.73
2022-09-06T20:52:31.295Z,4.80
2022-09-06T20:54:33.011Z,4.27
2022-09-06T20:56:38.451Z,4.20
2022-09-06T20:58:41.152Z,5.50
2022-09-06T21:00:42.909Z,4.80
2022-09-06T21:02:44.679Z,5.20
2022-09-06T21:04:46.589Z,4.17
2022-09-06T21:06:51.119Z,4.70
2022-09-06T21:08:53.646Z,4.57
2022-09-06T21:11:02.886Z,4.30
2022-09-06T21:13:04.952Z,5.50
2022-09-06T21:15:07.326Z,4.40
2022-09-06T21:17:09.208Z,3.83
2022-09-06T21:19:12.144Z,4.47
2022-09-06T21:21:14.265Z,3.90
2022-09-06T21:23:16.241Z,5.23
2022-09-06T21:25:18.150Z,3.93
2022-09-06T21:27:20.030Z,4.10
2022-09-06T21:29:21.906Z,3.50
2022-09-06T21:31:25.957Z,4.07
2022-09-06T21:33:35.690Z,3.30
2022-09-06T21:35:37.538Z,3.50
2022-09-06T21:37:39.257Z,3.47
2022-09-06T21:39:41.032Z,2.30
2022-09-06T21:41:43.817Z,2.33
2022-09-06T21:43:46.528Z,2.70
2022-09-06T21:45:49.038Z,3.50
2022-09-06T21:47:50.766Z,2.90
2022-09-06T21:49:52.572Z,3.10
2022-09-06T21:51:54.322Z,2.73
2022-09-06T21:53:59.503Z,3.67
2022-09-06T21:56:02.349Z,2.90
2022-09-06T21:58:04.151Z,2.40
2022-09-06T22:00:06.628Z,3.23
2022-09-06T22:02:09.631Z,2.70
2022-09-06T22:04:11.508Z,3.07
2022-09-06T22:06:19.209Z,2.40
2022-09-06T22:08:21.704Z,2.73
2022-09-06T22:10:24.621Z,2.30
2022-09-06T22:12:26.331Z,2.53
2022-09-06T22:14:28.039Z,2.70
2022-09-06T22:16:32.575Z,2.13
2022-09-06T22:18:35.209Z,2.50
2022-09-06T22:20:37.835Z,2.60
2022-09-06T22:22:39.620Z,3.00
2022-09-06T22:24:41.371Z,2.50
2022-09-06T22:26:43.470Z,2.10
2022-09-06T22:28:45.269Z,2.43
2022-09-06T22:30:47.032Z,2.70
2022-09-06T22:32:49.089Z,2.50
2022-09-06T22:34:50.893Z,2.63
2022-09-06T22:36:52.594Z,2.43
2022-09-06T22:38:58.014Z,2.23
2022-09-06T22:40:59.788Z,2.33
2022-09-06T22:43:02.405Z,2.20
2022-09-06T22:45:04.555Z,2.53
2022-09-06T22:47:06.814Z,2.87
2022-09-06T22:49:08.631Z,2.30
2022-09-06T22:51:10.348Z,2.20
2022-09-06T22:53:12.407Z,2.40
2022-09-06T22:55:14.282Z,2.10
2022-09-06T22:57:16.064Z,1.90
2022-09-06T22:59:17.997Z,1.93
2022-09-06T23:01:19.851Z,2.33
2022-09-06T23:03:22.543Z,1.93
2022-09-06T23:05:24.649Z,2.63
2022-09-06T23:07:26.413Z,2.20
2022-09-06T23:09:28.833Z,2.57
2022-09-06T23:11:32.493Z,2.47
2022-09-06T23:13:34.605Z,2.30
2022-09-06T23:15:37.597Z,1.93
2022-09-06T23:17:39.374Z,2.10
2022-09-06T23:19:41.335Z,1.90
2022-09-06T23:21:43.337Z,2.10
2022-09-06T23:23:46.227Z,1.90
2022-09-06T23:25:48.340Z,2.20
2022-09-06T23:27:50.225Z,1.97
2022-09-06T23:29:51.950Z,2.57
2022-09-06T23:31:53.733Z,2.13
2022-09-06T23:33:57.488Z,2.30
2022-09-06T23:35:59.330Z,2.17
2022-09-06T23:38:01.082Z,2.60
2022-09-06T23:40:08.336Z,2.33
2022-09-06T23:42:10.747Z,2.23
2022-09-06T23:44:12.465Z,2.17
2022-09-06T23:46:17.185Z,1.70
2022-09-06T23:48:18.986Z,2.10
2022-09-06T23:50:20.961Z,2.80
2022-09-06T23:52:22.695Z,2.27
2022-09-06T23:54:24.498Z,2.30
2022-09-06T23:56:26.229Z,2.20
2022-09-06T23:58:28.056Z,2.30
